sensor_id;sensor_type;location;lat;lon;timestamp;pressure;altitude;pressure_sealevel;temperature;humidity
62800;BME280;48842;51.046;13.796;2023-02-03T00:00:13;101098.88;;;7.01;64.39
62800;BME280;48842;51.046;13.796;2023-02-03T00:02:39;101101.47;;;7.01;64.21
62800;BME280;48842;51.046;13.796;2023-02-03T00:05:04;101102.34;;;7.02;64.29
62800;BME280;48842;51.046;13.796;2023-02-03T00:07:30;101104.97;;;7.02;64.18
62800;BME280;48842;51.046;13.796;2023-02-03T00:09:56;101097.16;;;7.02;64.20
62800;BME280;48842;51.046;13.796;2023-02-03T00:12:21;101093.66;;;7.01;64.18
62800;BME280;48842;51.046;13.796;2023-02-03T00:14:47;101097.16;;;7.02;64.37
62800;BME280;48842;51.046;13.796;2023-02-03T00:17:12;101094.59;;;7.03;64.42
62800;BME280;48842;51.046;13.796;2023-02-03T00:19:39;101092.84;;;7.04;64.17
62800;BME280;48842;51.046;13.796;2023-02-03T00:22:04;101079.88;;;7.05;64.19
62800;BME280;48842;51.046;13.796;2023-02-03T00:24:29;101081.66;;;7.06;64.26
62800;BME280;48842;51.046;13.796;2023-02-03T00:26:54;101078.22;;;7.07;63.91
62800;BME280;48842;51.046;13.796;2023-02-03T00:29:20;101082.59;;;7.08;64.23
62800;BME280;48842;51.046;13.796;2023-02-03T00:31:48;101085.19;;;7.08;64.19
62800;BME280;48842;51.046;13.796;2023-02-03T00:34:14;101082.59;;;7.08;64.12
62800;BME280;48842;51.046;13.796;2023-02-03T00:36:39;101080.91;;;7.10;64.10
62800;BME280;48842;51.046;13.796;2023-02-03T00:39:04;101078.31;;;7.10;64.41
62800;BME280;48842;51.046;13.796;2023-02-03T00:41:29;101073.09;;;7.10;64.40
62800;BME280;48842;51.046;13.796;2023-02-03T00:43:58;101067.94;;;7.12;64.17
62800;BME280;48842;51.046;13.796;2023-02-03T00:46:23;101067.09;;;7.13;64.37
62800;BME280;48842;51.046;13.796;2023-02-03T00:48:48;101061.03;;;7.14;64.55
62800;BME280;48842;51.046;13.796;2023-02-03T00:51:13;101050.69;;;7.15;64.45
62800;BME280;48842;51.046;13.796;2023-02-03T00:53:39;101052.44;;;7.16;64.91
62800;BME280;48842;51.046;13.796;2023-02-03T00:56:04;101049.81;;;7.16;64.53
62800;BME280;48842;51.046;13.796;2023-02-03T00:58:36;101043.75;;;7.16;64.68
62800;BME280;48842;51.046;13.796;2023-02-03T01:01:01;101034.16;;;7.15;64.77
62800;BME280;48842;51.046;13.796;2023-02-03T01:03:27;101028.06;;;7.14;64.80
62800;BME280;48842;51.046;13.796;2023-02-03T01:05:52;101019.34;;;7.14;64.70
62800;BME280;48842;51.046;13.796;2023-02-03T01:08:17;101012.44;;;7.14;64.65
62800;BME280;48842;51.046;13.796;2023-02-03T01:10:42;101012.44;;;7.14;64.73
62800;BME280;48842;51.046;13.796;2023-02-03T01:13:08;101006.41;;;7.15;64.62
62800;BME280;48842;51.046;13.796;2023-02-03T01:15:33;100999.44;;;7.16;64.81
62800;BME280;48842;51.046;13.796;2023-02-03T01:17:58;100994.25;;;7.16;64.61
62800;BME280;48842;51.046;13.796;2023-02-03T01:20:23;100987.28;;;7.16;64.59
62800;BME280;48842;51.046;13.796;2023-02-03T01:22:49;100972.53;;;7.15;64.76
62800;BME280;48842;51.046;13.796;2023-02-03T01:25:14;100976.03;;;7.18;64.50
62800;BME280;48842;51.046;13.796;2023-02-03T01:27:39;100968.22;;;7.18;64.75
62800;BME280;48842;51.046;13.796;2023-02-03T01:30:05;100962.97;;;7.16;64.65
62800;BME280;48842;51.046;13.796;2023-02-03T01:32:30;100961.19;;;7.15;64.13
62800;BME280;48842;51.046;13.796;2023-02-03T01:34:55;100953.34;;;7.13;64.23
62800;BME280;48842;51.046;13.796;2023-02-03T01:37:20;100948.97;;;7.12;64.22
62800;BME280;48842;51.046;13.796;2023-02-03T01:39:46;100948.06;;;7.10;64.20
62800;BME280;48842;51.046;13.796;2023-02-03T01:42:12;100934.16;;;7.10;64.14
62800;BME280;48842;51.046;13.796;2023-02-03T01:44:42;100920.19;;;7.08;64.44
62800;BME280;48842;51.046;13.796;2023-02-03T01:47:17;100928.78;;;7.05;64.50
62800;BME280;48842;51.046;13.796;2023-02-03T01:49:55;100933.09;;;7.03;64.44
62800;BME280;48842;51.046;13.796;2023-02-03T01:52:23;100933.09;;;7.03;64.34
62800;BME280;48842;51.046;13.796;2023-02-03T01:54:49;100931.34;;;7.04;64.48
62800;BME280;48842;51.046;13.796;2023-02-03T01:57:19;100928.72;;;7.02;64.42
62800;BME280;48842;51.046;13.796;2023-02-03T01:59:47;100921.69;;;6.98;64.45
62800;BME280;48842;51.046;13.796;2023-02-03T02:02:12;100915.53;;;6.96;64.70
62800;BME280;48842;51.046;13.796;2023-02-03T02:05:04;100908.53;;;6.95;64.90
62800;BME280;48842;51.046;13.796;2023-02-03T02:07:30;100904.25;;;6.95;65.13
62800;BME280;48842;51.046;13.796;2023-02-03T02:09:56;100905.97;;;6.96;65.35
62800;BME280;48842;51.046;13.796;2023-02-03T02:12:21;100898.25;;;6.98;65.41
62800;BME280;48842;51.046;13.796;2023-02-03T02:14:47;100880.09;;;7.01;65.48
62800;BME280;48842;51.046;13.796;2023-02-03T02:17:38;100855.72;;;6.99;65.32
62800;BME280;48842;51.046;13.796;2023-02-03T02:23:34;100857.31;;;6.94;65.55
62800;BME280;48842;51.046;13.796;2023-02-03T02:26:25;100840.88;;;6.96;65.56
62800;BME280;48842;51.046;13.796;2023-02-03T02:31:53;100850.34;;;6.93;65.77
62800;BME280;48842;51.046;13.796;2023-02-03T02:37:08;100851.13;;;6.90;65.67
62800;BME280;48842;51.046;13.796;2023-02-03T02:39:56;100835.38;;;6.86;65.65
62800;BME280;48842;51.046;13.796;2023-02-03T02:42:38;100817.09;;;6.82;65.75
62800;BME280;48842;51.046;13.796;2023-02-03T02:45:45;100809.22;;;6.81;66.07
62800;BME280;48842;51.046;13.796;2023-02-03T02:48:28;100814.44;;;6.81;66.17
62800;BME280;48842;51.046;13.796;2023-02-03T02:50:57;100805.75;;;6.80;66.07
62800;BME280;48842;51.046;13.796;2023-02-03T02:53:25;100803.16;;;6.80;65.93
62800;BME280;48842;51.046;13.796;2023-02-03T02:55:53;100793.69;;;6.84;66.22
62800;BME280;48842;51.046;13.796;2023-02-03T02:58:22;100799.84;;;6.88;66.09
62800;BME280;48842;51.046;13.796;2023-02-03T03:00:47;100787.75;;;6.90;66.07
62800;BME280;48842;51.046;13.796;2023-02-03T03:03:18;100768.66;;;6.89;66.30
62800;BME280;48842;51.046;13.796;2023-02-03T03:05:53;100755.69;;;6.91;66.46
62800;BME280;48842;51.046;13.796;2023-02-03T03:08:23;100756.59;;;6.93;66.30
62800;BME280;48842;51.046;13.796;2023-02-03T03:10:52;100749.63;;;6.92;66.29
62800;BME280;48842;51.046;13.796;2023-02-03T03:13:23;100741.81;;;6.92;66.62
62800;BME280;48842;51.046;13.796;2023-02-03T03:15:52;100737.53;;;6.94;66.52
62800;BME280;48842;51.046;13.796;2023-02-03T03:18:24;100728.84;;;6.95;66.63
62800;BME280;48842;51.046;13.796;2023-02-03T03:20:55;100741.03;;;6.96;66.56
62800;BME280;48842;51.046;13.796;2023-02-03T03:23:27;100719.38;;;6.97;66.63
62800;BME280;48842;51.046;13.796;2023-02-03T03:25:59;100726.34;;;6.98;66.73
62800;BME280;48842;51.046;13.796;2023-02-03T03:28:56;100722.91;;;7.01;66.86
62800;BME280;48842;51.046;13.796;2023-02-03T03:31:21;100718.66;;;7.03;66.64
62800;BME280;48842;51.046;13.796;2023-02-03T03:33:47;100720.44;;;7.05;66.71
62800;BME280;48842;51.046;13.796;2023-02-03T03:36:24;100716.97;;;7.06;66.70
62800;BME280;48842;51.046;13.796;2023-02-03T03:38:59;100711.78;;;7.06;66.64
62800;BME280;48842;51.046;13.796;2023-02-03T03:41:36;100714.41;;;7.08;66.82
62800;BME280;48842;51.046;13.796;2023-02-03T03:44:05;100715.38;;;7.11;66.86
62800;BME280;48842;51.046;13.796;2023-02-03T03:46:54;100700.66;;;7.13;67.03
62800;BME280;48842;51.046;13.796;2023-02-03T03:49:24;100711.13;;;7.15;66.74
62800;BME280;48842;51.046;13.796;2023-02-03T03:51:55;100705.91;;;7.15;66.68
62800;BME280;48842;51.046;13.796;2023-02-03T03:54:23;100708.53;;;7.16;66.87
62800;BME280;48842;51.046;13.796;2023-02-03T03:57:08;100707.72;;;7.18;67.00
62800;BME280;48842;51.046;13.796;2023-02-03T03:59:40;100705.19;;;7.21;66.73
62800;BME280;48842;51.046;13.796;2023-02-03T04:02:08;100692.97;;;7.20;66.73
62800;BME280;48842;51.046;13.796;2023-02-03T04:04:36;100676.53;;;7.21;66.81
62800;BME280;48842;51.046;13.796;2023-02-03T04:07:03;100660.06;;;7.22;67.21
62800;BME280;48842;51.046;13.796;2023-02-03T04:09:28;100651.38;;;7.23;67.55
62800;BME280;48842;51.046;13.796;2023-02-03T04:11:53;100640.94;;;7.23;67.42
62800;BME280;48842;51.046;13.796;2023-02-03T04:14:30;100633.22;;;7.26;67.47
62800;BME280;48842;51.046;13.796;2023-02-03T04:16:56;100624.56;;;7.28;67.66
62800;BME280;48842;51.046;13.796;2023-02-03T04:19:22;100622.88;;;7.29;67.58
62800;BME280;48842;51.046;13.796;2023-02-03T04:21:47;100622.09;;;7.33;67.78
62800;BME280;48842;51.046;13.796;2023-02-03T04:24:12;100615.97;;;7.32;67.73
62800;BME280;48842;51.046;13.796;2023-02-03T04:26:37;100615.13;;;7.32;67.73
62800;BME280;48842;51.046;13.796;2023-02-03T04:29:03;100597.78;;;7.34;68.31
62800;BME280;48842;51.046;13.796;2023-02-03T04:31:28;100610.00;;;7.37;69.42
62800;BME280;48842;51.046;13.796;2023-02-03T04:33:53;100599.63;;;7.40;70.53
62800;BME280;48842;51.046;13.796;2023-02-03T04:36:18;100600.72;;;7.49;70.67
62800;BME280;48842;51.046;13.796;2023-02-03T04:38:44;100601.69;;;7.55;71.57
62800;BME280;48842;51.046;13.796;2023-02-03T04:41:09;100596.66;;;7.64;71.04
62800;BME280;48842;51.046;13.796;2023-02-03T04:43:34;100595.84;;;7.68;72.42
62800;BME280;48842;51.046;13.796;2023-02-03T04:45:59;100603.09;;;7.81;71.06
62800;BME280;48842;51.046;13.796;2023-02-03T04:48:25;100588.34;;;7.83;71.69
62800;BME280;48842;51.046;13.796;2023-02-03T04:50:50;100588.47;;;7.91;71.31
62800;BME280;48842;51.046;13.796;2023-02-03T04:53:16;100597.94;;;7.84;72.59
62800;BME280;48842;51.046;13.796;2023-02-03T04:55:45;100586.88;;;7.98;72.17
62800;BME280;48842;51.046;13.796;2023-02-03T04:58:10;100600.81;;;8.00;71.91
62800;BME280;48842;51.046;13.796;2023-02-03T05:00:35;100596.34;;;7.94;72.36
62800;BME280;48842;51.046;13.796;2023-02-03T05:03:01;100592.16;;;8.01;72.24
62800;BME280;48842;51.046;13.796;2023-02-03T05:05:26;100596.59;;;8.07;72.20
62800;BME280;48842;51.046;13.796;2023-02-03T05:07:51;100592.03;;;7.95;72.85
62800;BME280;48842;51.046;13.796;2023-02-03T05:10:16;100587.03;;;8.07;72.43
62800;BME280;48842;51.046;13.796;2023-02-03T05:12:42;100573.88;;;7.99;72.17
62800;BME280;48842;51.046;13.796;2023-02-03T05:15:08;100574.72;;;8.00;72.58
62800;BME280;48842;51.046;13.796;2023-02-03T05:17:33;100581.78;;;8.04;72.47
62800;BME280;48842;51.046;13.796;2023-02-03T05:20:03;100580.59;;;7.88;73.04
62800;BME280;48842;51.046;13.796;2023-02-03T05:22:28;100558.22;;;7.99;72.20
62800;BME280;48842;51.046;13.796;2023-02-03T05:24:54;100562.56;;;7.99;72.76
62800;BME280;48842;51.046;13.796;2023-02-03T05:27:19;100558.25;;;8.02;72.06
62800;BME280;48842;51.046;13.796;2023-02-03T05:29:44;100551.50;;;8.12;72.18
62800;BME280;48842;51.046;13.796;2023-02-03T05:32:09;100558.41;;;8.10;71.98
62800;BME280;48842;51.046;13.796;2023-02-03T05:34:35;100537.53;;;8.10;71.80
62800;BME280;48842;51.046;13.796;2023-02-03T05:37:00;100519.44;;;8.19;71.51
62800;BME280;48842;51.046;13.796;2023-02-03T05:39:25;100532.44;;;8.16;71.38
62800;BME280;48842;51.046;13.796;2023-02-03T05:41:51;100534.28;;;8.22;71.33
62800;BME280;48842;51.046;13.796;2023-02-03T05:44:16;100532.66;;;8.32;71.19
62800;BME280;48842;51.046;13.796;2023-02-03T05:46:41;100537.19;;;8.42;70.52
62800;BME280;48842;51.046;13.796;2023-02-03T05:49:06;100537.25;;;8.45;70.01
62800;BME280;48842;51.046;13.796;2023-02-03T05:51:32;100536.28;;;8.40;70.01
62800;BME280;48842;51.046;13.796;2023-02-03T05:53:57;100539.03;;;8.46;69.63
62800;BME280;48842;51.046;13.796;2023-02-03T05:56:22;100546.78;;;8.43;69.71
62800;BME280;48842;51.046;13.796;2023-02-03T05:58:47;100554.69;;;8.46;69.35
62800;BME280;48842;51.046;13.796;2023-02-03T06:01:15;100541.75;;;8.55;69.79
62800;BME280;48842;51.046;13.796;2023-02-03T06:03:41;100542.69;;;8.58;69.23
62800;BME280;48842;51.046;13.796;2023-02-03T06:06:06;100527.94;;;8.61;69.37
62800;BME280;48842;51.046;13.796;2023-02-03T06:08:31;100535.81;;;8.66;69.58
62800;BME280;48842;51.046;13.796;2023-02-03T06:10:57;100541.94;;;8.65;69.06
62800;BME280;48842;51.046;13.796;2023-02-03T06:13:23;100551.44;;;8.63;69.27
62800;BME280;48842;51.046;13.796;2023-02-03T06:15:49;100555.72;;;8.56;69.54
62800;BME280;48842;51.046;13.796;2023-02-03T06:18:14;100543.50;;;8.53;69.62
62800;BME280;48842;51.046;13.796;2023-02-03T06:20:39;100534.00;;;8.59;69.95
62800;BME280;48842;51.046;13.796;2023-02-03T06:23:05;100534.94;;;8.64;69.75
62800;BME280;48842;51.046;13.796;2023-02-03T06:25:30;100529.72;;;8.64;69.69
62800;BME280;48842;51.046;13.796;2023-02-03T06:27:57;100507.06;;;8.63;69.61
62800;BME280;48842;51.046;13.796;2023-02-03T06:30:22;100502.81;;;8.68;69.99
62800;BME280;48842;51.046;13.796;2023-02-03T06:32:48;100510.59;;;8.65;69.21
62800;BME280;48842;51.046;13.796;2023-02-03T06:35:13;100495.03;;;8.72;69.23
62800;BME280;48842;51.046;13.796;2023-02-03T06:37:39;100506.28;;;8.70;68.96
62800;BME280;48842;51.046;13.796;2023-02-03T06:40:05;100507.91;;;8.59;69.05
62800;BME280;48842;51.046;13.796;2023-02-03T06:42:31;100499.38;;;8.70;69.16
62800;BME280;48842;51.046;13.796;2023-02-03T06:44:56;100492.34;;;8.68;68.98
62800;BME280;48842;51.046;13.796;2023-02-03T06:47:21;100490.47;;;8.58;68.99
62800;BME280;48842;51.046;13.796;2023-02-03T06:49:47;100491.56;;;8.73;69.05
62800;BME280;48842;51.046;13.796;2023-02-03T06:52:13;100488.97;;;8.75;68.98
62800;BME280;48842;51.046;13.796;2023-02-03T06:54:39;100477.69;;;8.76;69.12
62800;BME280;48842;51.046;13.796;2023-02-03T06:57:04;100471.53;;;8.72;69.47
62800;BME280;48842;51.046;13.796;2023-02-03T06:59:30;100471.53;;;8.74;69.90
62800;BME280;48842;51.046;13.796;2023-02-03T07:01:55;100457.63;;;8.75;69.77
62800;BME280;48842;51.046;13.796;2023-02-03T07:04:21;100455.81;;;8.68;69.76
62800;BME280;48842;51.046;13.796;2023-02-03T07:06:47;100458.34;;;8.63;69.52
62800;BME280;48842;51.046;13.796;2023-02-03T07:09:12;100452.28;;;8.66;69.44
62800;BME280;48842;51.046;13.796;2023-02-03T07:11:38;100434.78;;;8.59;69.21
62800;BME280;48842;51.046;13.796;2023-02-03T07:14:04;100422.56;;;8.56;69.36
62800;BME280;48842;51.046;13.796;2023-02-03T07:16:29;100425.28;;;8.64;68.97
62800;BME280;48842;51.046;13.796;2023-02-03T07:18:55;100433.09;;;8.64;68.83
62800;BME280;48842;51.046;13.796;2023-02-03T07:21:21;100442.81;;;8.74;68.80
62800;BME280;48842;51.046;13.796;2023-02-03T07:23:47;100448.00;;;8.71;68.56
62800;BME280;48842;51.046;13.796;2023-02-03T07:26:13;100428.78;;;8.66;68.45
62800;BME280;48842;51.046;13.796;2023-02-03T07:28:38;100421.84;;;8.68;68.30
62800;BME280;48842;51.046;13.796;2023-02-03T07:31:04;100417.63;;;8.78;67.92
62800;BME280;48842;51.046;13.796;2023-02-03T07:33:30;100415.09;;;8.84;67.51
62800;BME280;48842;51.046;13.796;2023-02-03T07:35:57;100430.81;;;8.88;67.18
62800;BME280;48842;51.046;13.796;2023-02-03T07:38:23;100423.00;;;8.91;66.46
62800;BME280;48842;51.046;13.796;2023-02-03T07:40:49;100430.03;;;8.96;66.75
62800;BME280;48842;51.046;13.796;2023-02-03T07:43:14;100426.63;;;9.03;66.32
62800;BME280;48842;51.046;13.796;2023-02-03T07:45:40;100417.88;;;8.99;66.37
62800;BME280;48842;51.046;13.796;2023-02-03T07:48:05;100409.94;;;8.91;66.46
62800;BME280;48842;51.046;13.796;2023-02-03T07:50:30;100410.09;;;9.02;66.55
62800;BME280;48842;51.046;13.796;2023-02-03T07:52:57;100401.38;;;9.03;66.51
62800;BME280;48842;51.046;13.796;2023-02-03T07:55:23;100421.22;;;8.87;67.23
62800;BME280;48842;51.046;13.796;2023-02-03T07:57:48;100407.31;;;8.88;67.76
62800;BME280;48842;51.046;13.796;2023-02-03T08:00:14;100403.81;;;8.86;68.29
62800;BME280;48842;51.046;13.796;2023-02-03T08:02:43;100409.03;;;8.86;68.30
62800;BME280;48842;51.046;13.796;2023-02-03T08:05:09;100402.75;;;8.70;69.09
62800;BME280;48842;51.046;13.796;2023-02-03T08:07:34;100400.94;;;8.66;69.33
62800;BME280;48842;51.046;13.796;2023-02-03T08:10:00;100402.53;;;8.55;70.07
62800;BME280;48842;51.046;13.796;2023-02-03T08:12:25;100391.25;;;8.58;70.23
62800;BME280;48842;51.046;13.796;2023-02-03T08:14:50;100391.25;;;8.58;70.20
62800;BME280;48842;51.046;13.796;2023-02-03T08:17:15;100403.31;;;8.49;70.37
62800;BME280;48842;51.046;13.796;2023-02-03T08:19:41;100380.69;;;8.48;70.13
62800;BME280;48842;51.046;13.796;2023-02-03T08:22:06;100381.69;;;8.60;69.89
62800;BME280;48842;51.046;13.796;2023-02-03T08:24:31;100365.22;;;8.64;69.83
62800;BME280;48842;51.046;13.796;2023-02-03T08:26:57;100386.09;;;8.62;69.88
62800;BME280;48842;51.046;13.796;2023-02-03T08:29:22;100380.88;;;8.62;69.76
62800;BME280;48842;51.046;13.796;2023-02-03T08:31:47;100363.53;;;8.67;69.63
62800;BME280;48842;51.046;13.796;2023-02-03T08:34:12;100376.53;;;8.66;69.50
62800;BME280;48842;51.046;13.796;2023-02-03T08:36:38;100401.06;;;8.76;69.06
62800;BME280;48842;51.046;13.796;2023-02-03T08:39:07;100368.81;;;8.72;69.46
62800;BME280;48842;51.046;13.796;2023-02-03T08:41:32;100365.34;;;8.74;69.08
62800;BME280;48842;51.046;13.796;2023-02-03T08:43:59;100377.47;;;8.68;69.50
62800;BME280;48842;51.046;13.796;2023-02-03T08:46:24;100373.03;;;8.61;69.89
62800;BME280;48842;51.046;13.796;2023-02-03T08:48:49;100376.44;;;8.55;69.96
62800;BME280;48842;51.046;13.796;2023-02-03T08:51:16;100371.31;;;8.66;69.94
62800;BME280;48842;51.046;13.796;2023-02-03T08:53:42;100348.66;;;8.60;70.32
62800;BME280;48842;51.046;13.796;2023-02-03T08:56:09;100363.44;;;8.60;70.25
62800;BME280;48842;51.046;13.796;2023-02-03T08:58:35;100368.66;;;8.60;70.37
62800;BME280;48842;51.046;13.796;2023-02-03T09:01:08;100352.97;;;8.60;70.98
62800;BME280;48842;51.046;13.796;2023-02-03T09:03:34;100362.59;;;8.64;70.87
62800;BME280;48842;51.046;13.796;2023-02-03T09:05:59;100362.56;;;8.61;70.99
62800;BME280;48842;51.046;13.796;2023-02-03T09:08:25;100357.34;;;8.59;70.81
62800;BME280;48842;51.046;13.796;2023-02-03T09:10:50;100349.47;;;8.56;70.55
62800;BME280;48842;51.046;13.796;2023-02-03T09:13:15;100347.75;;;8.60;70.82
62800;BME280;48842;51.046;13.796;2023-02-03T09:15:40;100334.75;;;8.64;71.03
62800;BME280;48842;51.046;13.796;2023-02-03T09:18:06;100344.25;;;8.58;71.18
62800;BME280;48842;51.046;13.796;2023-02-03T09:20:31;100332.91;;;8.54;71.96
62800;BME280;48842;51.046;13.796;2023-02-03T09:22:57;100331.06;;;8.47;72.29
62800;BME280;48842;51.046;13.796;2023-02-03T09:25:23;100333.56;;;8.39;73.01
62800;BME280;48842;51.046;13.796;2023-02-03T09:27:48;100315.47;;;8.50;72.34
62800;BME280;48842;51.046;13.796;2023-02-03T09:30:14;100300.63;;;8.47;72.32
62800;BME280;48842;51.046;13.796;2023-02-03T09:32:39;100294.59;;;8.50;71.91
62800;BME280;48842;51.046;13.796;2023-02-03T09:35:04;100305.97;;;8.56;72.19
62800;BME280;48842;51.046;13.796;2023-02-03T09:37:30;100294.72;;;8.62;71.76
62800;BME280;48842;51.046;13.796;2023-02-03T09:39:55;100295.69;;;8.72;71.61
62800;BME280;48842;51.046;13.796;2023-02-03T09:42:31;100260.81;;;8.67;71.66
62800;BME280;48842;51.046;13.796;2023-02-03T09:45:11;100266.97;;;8.72;71.61
62800;BME280;48842;51.046;13.796;2023-02-03T09:47:42;100253.81;;;8.66;71.63
62800;BME280;48842;51.046;13.796;2023-02-03T09:50:19;100233.88;;;8.72;71.54
62800;BME280;48842;51.046;13.796;2023-02-03T09:52:45;100240.63;;;8.50;72.49
62800;BME280;48842;51.046;13.796;2023-02-03T09:55:33;100240.75;;;8.64;72.78
62800;BME280;48842;51.046;13.796;2023-02-03T09:58:16;100229.47;;;8.67;72.61
62800;BME280;48842;51.046;13.796;2023-02-03T10:00:47;100221.66;;;8.67;72.68
62800;BME280;48842;51.046;13.796;2023-02-03T10:06:11;100217.31;;;8.67;72.95
62800;BME280;48842;51.046;13.796;2023-02-03T10:12:14;100211.19;;;8.67;72.26
62800;BME280;48842;51.046;13.796;2023-02-03T10:14:51;100207.84;;;8.82;72.06
62800;BME280;48842;51.046;13.796;2023-02-03T10:20:02;100181.81;;;8.89;71.55
62800;BME280;48842;51.046;13.796;2023-02-03T10:22:32;100193.13;;;8.91;71.82
62800;BME280;48842;51.046;13.796;2023-02-03T10:25:03;100169.63;;;8.91;71.67
62800;BME280;48842;51.046;13.796;2023-02-03T10:27:31;100169.63;;;8.93;71.72
62800;BME280;48842;51.046;13.796;2023-02-03T10:30:22;100162.59;;;8.84;71.91
62800;BME280;48842;51.046;13.796;2023-02-03T10:32:54;100155.63;;;8.83;72.33
62800;BME280;48842;51.046;13.796;2023-02-03T10:35:27;100153.81;;;8.73;72.48
62800;BME280;48842;51.046;13.796;2023-02-03T10:37:57;100150.31;;;8.69;73.62
62800;BME280;48842;51.046;13.796;2023-02-03T10:40:24;100145.13;;;8.76;73.08
62800;BME280;48842;51.046;13.796;2023-02-03T10:42:51;100139.91;;;8.74;73.56
62800;BME280;48842;51.046;13.796;2023-02-03T10:45:37;100143.28;;;8.62;74.02
62800;BME280;48842;51.046;13.796;2023-02-03T10:48:04;100126.78;;;8.66;74.20
62800;BME280;48842;51.046;13.796;2023-02-03T10:50:31;100126.84;;;8.74;74.31
62800;BME280;48842;51.046;13.796;2023-02-03T10:53:34;100116.41;;;8.74;74.15
62800;BME280;48842;51.046;13.796;2023-02-03T10:56:06;100119.88;;;8.74;74.17
62800;BME280;48842;51.046;13.796;2023-02-03T10:58:33;100095.53;;;8.77;74.05
62800;BME280;48842;51.046;13.796;2023-02-03T11:01:09;100103.38;;;8.80;74.17
62800;BME280;48842;51.046;13.796;2023-02-03T11:03:34;100109.53;;;8.90;73.48
62800;BME280;48842;51.046;13.796;2023-02-03T11:06:10;100096.47;;;8.88;73.39
62800;BME280;48842;51.046;13.796;2023-02-03T11:08:38;100086.88;;;8.87;73.43
62800;BME280;48842;51.046;13.796;2023-02-03T11:11:06;100108.56;;;8.77;72.82
62800;BME280;48842;51.046;13.796;2023-02-03T11:13:33;100086.88;;;8.84;72.82
62800;BME280;48842;51.046;13.796;2023-02-03T11:16:02;100088.69;;;8.95;72.40
62800;BME280;48842;51.046;13.796;2023-02-03T11:18:45;100084.38;;;9.00;72.00
62800;BME280;48842;51.046;13.796;2023-02-03T11:21:15;100080.84;;;8.95;71.88
62800;BME280;48842;51.046;13.796;2023-02-03T11:26:39;100070.34;;;8.85;73.62
62800;BME280;48842;51.046;13.796;2023-02-03T11:29:17;100085.19;;;8.93;73.87
62800;BME280;48842;51.046;13.796;2023-02-03T11:31:46;100093.00;;;8.89;74.26
62800;BME280;48842;51.046;13.796;2023-02-03T11:34:18;100073.81;;;8.86;75.41
62800;BME280;48842;51.046;13.796;2023-02-03T11:36:45;100060.78;;;8.87;74.88
62800;BME280;48842;51.046;13.796;2023-02-03T11:39:17;100068.59;;;8.84;75.52
62800;BME280;48842;51.046;13.796;2023-02-03T11:41:43;100094.69;;;8.81;75.96
62800;BME280;48842;51.046;13.796;2023-02-03T11:44:26;100109.41;;;8.71;76.87
62800;BME280;48842;51.046;13.796;2023-02-03T11:46:59;100061.56;;;8.74;77.46
62800;BME280;48842;51.046;13.796;2023-02-03T11:49:39;100059.78;;;8.68;77.64
62800;BME280;48842;51.046;13.796;2023-02-03T11:52:47;100057.19;;;8.74;77.51
62800;BME280;48842;51.046;13.796;2023-02-03T11:55:27;100061.53;;;8.71;78.19
62800;BME280;48842;51.046;13.796;2023-02-03T11:58:19;100048.47;;;8.71;78.00
62800;BME280;48842;51.046;13.796;2023-02-03T12:01:16;100031.06;;;8.71;78.37
62800;BME280;48842;51.046;13.796;2023-02-03T12:07:03;99986.63;;;8.59;79.76
62800;BME280;48842;51.046;13.796;2023-02-03T12:10:01;99969.22;;;8.63;79.29
62800;BME280;48842;51.046;13.796;2023-02-03T12:18:49;99945.84;;;8.90;78.08
62800;BME280;48842;51.046;13.796;2023-02-03T12:21:37;99979.00;;;9.01;77.91
62800;BME280;48842;51.046;13.796;2023-02-03T12:24:18;99972.91;;;9.03;77.31
62800;BME280;48842;51.046;13.796;2023-02-03T12:26:59;99986.81;;;8.95;76.43
62800;BME280;48842;51.046;13.796;2023-02-03T12:29:32;99953.75;;;8.95;76.54
62800;BME280;48842;51.046;13.796;2023-02-03T12:32:19;99975.53;;;9.05;76.25
62800;BME280;48842;51.046;13.796;2023-02-03T12:35:15;99995.53;;;8.97;75.70
62800;BME280;48842;51.046;13.796;2023-02-03T12:37:46;99992.13;;;9.16;75.01
62800;BME280;48842;51.046;13.796;2023-02-03T12:40:39;99978.19;;;9.14;74.70
62800;BME280;48842;51.046;13.796;2023-02-03T12:45:53;99968.63;;;9.19;73.45
62800;BME280;48842;51.046;13.796;2023-02-03T12:48:24;99952.97;;;9.29;73.30
62800;BME280;48842;51.046;13.796;2023-02-03T12:50:58;99942.50;;;9.29;71.98
62800;BME280;48842;51.046;13.796;2023-02-03T12:53:35;99947.78;;;9.35;71.75
62800;BME280;48842;51.046;13.796;2023-02-03T12:56:06;99952.16;;;9.47;71.68
62800;BME280;48842;51.046;13.796;2023-02-03T12:58:53;99960.84;;;9.50;71.33
62800;BME280;48842;51.046;13.796;2023-02-03T13:01:27;99939.09;;;9.60;71.47
62800;BME280;48842;51.046;13.796;2023-02-03T13:04:17;99950.41;;;9.52;71.55
62800;BME280;48842;51.046;13.796;2023-02-03T13:06:52;99953.91;;;9.58;72.04
62800;BME280;48842;51.046;13.796;2023-02-03T13:09:47;100000.06;;;9.44;73.72
62800;BME280;48842;51.046;13.796;2023-02-03T13:12:32;99998.31;;;9.37;76.28
62800;BME280;48842;51.046;13.796;2023-02-03T13:17:52;100052.88;;;8.75;81.44
62800;BME280;48842;51.046;13.796;2023-02-03T13:20:22;100062.22;;;8.48;80.08
62800;BME280;48842;51.046;13.796;2023-02-03T13:22:49;100034.22;;;8.29;78.57
62800;BME280;48842;51.046;13.796;2023-02-03T13:30:39;100048.44;;;7.69;75.10
62800;BME280;48842;51.046;13.796;2023-02-03T13:36:15;100058.03;;;7.75;75.16
62800;BME280;48842;51.046;13.796;2023-02-03T13:41:47;100058.94;;;7.76;73.93
62800;BME280;48842;51.046;13.796;2023-02-03T13:44:23;100063.34;;;7.81;74.19
62800;BME280;48842;51.046;13.796;2023-02-03T13:46:52;100053.75;;;7.80;73.02
62800;BME280;48842;51.046;13.796;2023-02-03T13:49:24;100068.56;;;7.83;72.28